sensor_id;sensor_type;location;lat;lon;timestamp;P1;durP1;ratioP1;P2;durP2;ratioP2
53309;SDS011;39197;53.200;5.792;2022-08-19T00:02:04;11.38;;;6.32;;
53309;SDS011;39197;53.200;5.792;2022-08-19T00:04:31;8.57;;;6.22;;
53309;SDS011;39197;53.200;5.792;2022-08-19T00:07:03;7.65;;;5.25;;
53309;SDS011;39197;53.200;5.792;2022-08-19T00:09:31;6.40;;;5.70;;
53309;SDS011;39197;53.200;5.792;2022-08-19T00:11:57;10.45;;;5.88;;
53309;SDS011;39197;53.200;5.792;2022-08-19T00:14:24;10.70;;;6.20;;
53309;SDS011;39197;53.200;5.792;2022-08-19T00:16:51;9.30;;;6.32;;
53309;SDS011;39197;53.200;5.792;2022-08-19T00:19:19;10.63;;;7.18;;
53309;SDS011;39197;53.200;5.792;2022-08-19T00:21:46;7.80;;;6.65;;
53309;SDS011;39197;53.200;5.792;2022-08-19T00:24:13;7.90;;;7.07;;
53309;SDS011;39197;53.200;5.792;2022-08-19T00:26:40;10.05;;;8.45;;
53309;SDS011;39197;53.200;5.792;2022-08-19T00:29:07;9.15;;;7.13;;
53309;SDS011;39197;53.200;5.792;2022-08-19T00:31:35;9.02;;;7.38;;
53309;SDS011;39197;53.200;5.792;2022-08-19T00:34:00;12.27;;;8.07;;
53309;SDS011;39197;53.200;5.792;2022-08-19T00:36:27;9.52;;;7.53;;
53309;SDS011;39197;53.200;5.792;2022-08-19T00:38:54;8.52;;;7.68;;
53309;SDS011;39197;53.200;5.792;2022-08-19T00:41:21;11.68;;;7.65;;
53309;SDS011;39197;53.200;5.792;2022-08-19T00:46:36;10.95;;;7.55;;
53309;SDS011;39197;53.200;5.792;2022-08-19T00:49:06;8.85;;;7.60;;
53309;SDS011;39197;53.200;5.792;2022-08-19T00:51:39;12.32;;;8.07;;
53309;SDS011;39197;53.200;5.792;2022-08-19T00:54:07;13.50;;;8.25;;
53309;SDS011;39197;53.200;5.792;2022-08-19T00:56:34;8.95;;;7.57;;
53309;SDS011;39197;53.200;5.792;2022-08-19T00:59:00;10.38;;;8.15;;
53309;SDS011;39197;53.200;5.792;2022-08-19T01:01:27;9.65;;;7.95;;
53309;SDS011;39197;53.200;5.792;2022-08-19T01:03:52;8.50;;;7.60;;
53309;SDS011;39197;53.200;5.792;2022-08-19T01:06:18;12.18;;;7.35;;
53309;SDS011;39197;53.200;5.792;2022-08-19T01:08:44;7.75;;;6.93;;
53309;SDS011;39197;53.200;5.792;2022-08-19T01:11:09;10.60;;;7.65;;
53309;SDS011;39197;53.200;5.792;2022-08-19T01:13:36;15.82;;;8.27;;
53309;SDS011;39197;53.200;5.792;2022-08-19T01:16:03;10.30;;;8.15;;
53309;SDS011;39197;53.200;5.792;2022-08-19T01:18:35;9.57;;;8.45;;
53309;SDS011;39197;53.200;5.792;2022-08-19T01:21:09;10.25;;;8.82;;
53309;SDS011;39197;53.200;5.792;2022-08-19T01:23:42;9.20;;;8.25;;
53309;SDS011;39197;53.200;5.792;2022-08-19T01:26:10;13.50;;;9.43;;
53309;SDS011;39197;53.200;5.792;2022-08-19T01:28:38;11.85;;;9.13;;
53309;SDS011;39197;53.200;5.792;2022-08-19T01:31:05;9.90;;;9.00;;
53309;SDS011;39197;53.200;5.792;2022-08-19T01:33:32;11.05;;;8.77;;
53309;SDS011;39197;53.200;5.792;2022-08-19T01:36:07;9.25;;;8.35;;
53309;SDS011;39197;53.200;5.792;2022-08-19T01:38:36;11.02;;;9.93;;
53309;SDS011;39197;53.200;5.792;2022-08-19T01:41:04;10.50;;;9.52;;
53309;SDS011;39197;53.200;5.792;2022-08-19T01:43:31;12.07;;;9.63;;
53309;SDS011;39197;53.200;5.792;2022-08-19T01:45:57;10.45;;;9.02;;
53309;SDS011;39197;53.200;5.792;2022-08-19T01:48:23;9.02;;;8.13;;
53309;SDS011;39197;53.200;5.792;2022-08-19T01:50:49;12.18;;;9.05;;
53309;SDS011;39197;53.200;5.792;2022-08-19T01:53:14;11.15;;;8.73;;
53309;SDS011;39197;53.200;5.792;2022-08-19T01:55:41;11.02;;;9.93;;
53309;SDS011;39197;53.200;5.792;2022-08-19T01:58:18;10.82;;;9.15;;
53309;SDS011;39197;53.200;5.792;2022-08-19T02:00:46;12.60;;;9.40;;
53309;SDS011;39197;53.200;5.792;2022-08-19T02:03:12;12.30;;;9.85;;
53309;SDS011;39197;53.200;5.792;2022-08-19T02:05:38;11.27;;;9.35;;
53309;SDS011;39197;53.200;5.792;2022-08-19T02:08:05;11.90;;;9.45;;
53309;SDS011;39197;53.200;5.792;2022-08-19T02:10:31;10.00;;;8.02;;
53309;SDS011;39197;53.200;5.792;2022-08-19T02:12:57;21.38;;;18.13;;
53309;SDS011;39197;53.200;5.792;2022-08-19T02:15:23;11.63;;;9.55;;
53309;SDS011;39197;53.200;5.792;2022-08-19T02:17:50;14.30;;;9.95;;
53309;SDS011;39197;53.200;5.792;2022-08-19T02:20:16;13.23;;;11.63;;
53309;SDS011;39197;53.200;5.792;2022-08-19T02:22:42;13.40;;;10.10;;
53309;SDS011;39197;53.200;5.792;2022-08-19T02:25:09;18.38;;;11.85;;
53309;SDS011;39197;53.200;5.792;2022-08-19T02:27:36;13.55;;;10.98;;
53309;SDS011;39197;53.200;5.792;2022-08-19T02:30:02;15.15;;;11.00;;
53309;SDS011;39197;53.200;5.792;2022-08-19T02:32:30;12.05;;;10.75;;
53309;SDS011;39197;53.200;5.792;2022-08-19T02:34:55;14.52;;;11.15;;
53309;SDS011;39197;53.200;5.792;2022-08-19T02:37:21;13.00;;;10.82;;
53309;SDS011;39197;53.200;5.792;2022-08-19T02:40:05;12.73;;;11.07;;
53309;SDS011;39197;53.200;5.792;2022-08-19T02:42:31;15.93;;;11.00;;
53309;SDS011;39197;53.200;5.792;2022-08-19T02:44:57;12.07;;;10.65;;
53309;SDS011;39197;53.200;5.792;2022-08-19T02:47:23;14.77;;;11.40;;
53309;SDS011;39197;53.200;5.792;2022-08-19T02:49:49;12.63;;;10.38;;
53309;SDS011;39197;53.200;5.792;2022-08-19T02:52:14;15.82;;;11.82;;
53309;SDS011;39197;53.200;5.792;2022-08-19T02:54:40;13.55;;;12.18;;
53309;SDS011;39197;53.200;5.792;2022-08-19T02:57:06;12.40;;;11.07;;
53309;SDS011;39197;53.200;5.792;2022-08-19T02:59:32;13.88;;;12.43;;
53309;SDS011;39197;53.200;5.792;2022-08-19T03:01:58;17.48;;;12.10;;
53309;SDS011;39197;53.200;5.792;2022-08-19T03:04:24;16.00;;;12.52;;
53309;SDS011;39197;53.200;5.792;2022-08-19T03:06:50;14.48;;;12.50;;
53309;SDS011;39197;53.200;5.792;2022-08-19T03:09:16;14.15;;;11.70;;
53309;SDS011;39197;53.200;5.792;2022-08-19T03:11:44;13.63;;;11.50;;
53309;SDS011;39197;53.200;5.792;2022-08-19T03:14:10;14.15;;;11.95;;
53309;SDS011;39197;53.200;5.792;2022-08-19T03:16:42;12.68;;;11.38;;
53309;SDS011;39197;53.200;5.792;2022-08-19T03:19:12;13.18;;;11.43;;
53309;SDS011;39197;53.200;5.792;2022-08-19T03:21:40;12.55;;;11.32;;
53309;SDS011;39197;53.200;5.792;2022-08-19T03:24:12;12.77;;;11.53;;
53309;SDS011;39197;53.200;5.792;2022-08-19T03:26:43;12.45;;;11.15;;
53309;SDS011;39197;53.200;5.792;2022-08-19T03:31:37;13.07;;;11.68;;
53309;SDS011;39197;53.200;5.792;2022-08-19T03:34:03;15.23;;;11.65;;
53309;SDS011;39197;53.200;5.792;2022-08-19T03:36:29;13.07;;;11.45;;
53309;SDS011;39197;53.200;5.792;2022-08-19T03:38:56;12.93;;;11.48;;
53309;SDS011;39197;53.200;5.792;2022-08-19T03:41:24;14.60;;;11.65;;
53309;SDS011;39197;53.200;5.792;2022-08-19T03:43:56;12.48;;;11.15;;
53309;SDS011;39197;53.200;5.792;2022-08-19T03:46:26;14.38;;;11.90;;
53309;SDS011;39197;53.200;5.792;2022-08-19T03:48:55;13.98;;;11.10;;
53309;SDS011;39197;53.200;5.792;2022-08-19T03:51:40;13.15;;;11.32;;
53309;SDS011;39197;53.200;5.792;2022-08-19T03:54:07;12.85;;;11.10;;
53309;SDS011;39197;53.200;5.792;2022-08-19T03:56:35;13.52;;;11.57;;
53309;SDS011;39197;53.200;5.792;2022-08-19T03:59:04;14.77;;;12.38;;
53309;SDS011;39197;53.200;5.792;2022-08-19T04:01:31;15.05;;;11.48;;
53309;SDS011;39197;53.200;5.792;2022-08-19T04:03:57;14.23;;;11.32;;
53309;SDS011;39197;53.200;5.792;2022-08-19T04:06:27;13.20;;;11.82;;
53309;SDS011;39197;53.200;5.792;2022-08-19T04:08:55;14.00;;;12.60;;
53309;SDS011;39197;53.200;5.792;2022-08-19T04:11:26;14.13;;;12.73;;
53309;SDS011;39197;53.200;5.792;2022-08-19T04:13:54;15.02;;;13.20;;
53309;SDS011;39197;53.200;5.792;2022-08-19T04:16:22;13.38;;;12.07;;
53309;SDS011;39197;53.200;5.792;2022-08-19T04:18:49;16.20;;;14.00;;
53309;SDS011;39197;53.200;5.792;2022-08-19T04:21:20;16.25;;;13.20;;
53309;SDS011;39197;53.200;5.792;2022-08-19T04:23:47;16.17;;;13.50;;
53309;SDS011;39197;53.200;5.792;2022-08-19T04:26:13;14.65;;;12.75;;
53309;SDS011;39197;53.200;5.792;2022-08-19T04:28:40;17.48;;;15.63;;
53309;SDS011;39197;53.200;5.792;2022-08-19T04:31:11;16.48;;;13.52;;
53309;SDS011;39197;53.200;5.792;2022-08-19T04:33:42;15.95;;;13.60;;
53309;SDS011;39197;53.200;5.792;2022-08-19T04:36:08;16.33;;;13.68;;
53309;SDS011;39197;53.200;5.792;2022-08-19T04:38:41;16.40;;;13.32;;
53309;SDS011;39197;53.200;5.792;2022-08-19T04:41:07;16.40;;;13.55;;
53309;SDS011;39197;53.200;5.792;2022-08-19T04:43:51;19.98;;;15.38;;
53309;SDS011;39197;53.200;5.792;2022-08-19T04:46:17;18.05;;;15.13;;
53309;SDS011;39197;53.200;5.792;2022-08-19T04:48:44;18.73;;;15.80;;
53309;SDS011;39197;53.200;5.792;2022-08-19T04:51:11;18.10;;;14.95;;
53309;SDS011;39197;53.200;5.792;2022-08-19T04:53:38;17.10;;;15.32;;
53309;SDS011;39197;53.200;5.792;2022-08-19T04:56:07;18.98;;;15.45;;
53309;SDS011;39197;53.200;5.792;2022-08-19T04:58:33;18.55;;;15.65;;
53309;SDS011;39197;53.200;5.792;2022-08-19T05:01:00;18.48;;;15.15;;
53309;SDS011;39197;53.200;5.792;2022-08-19T05:03:25;18.70;;;15.77;;
53309;SDS011;39197;53.200;5.792;2022-08-19T05:05:51;17.40;;;15.60;;
53309;SDS011;39197;53.200;5.792;2022-08-19T05:08:19;20.05;;;17.13;;
53309;SDS011;39197;53.200;5.792;2022-08-19T05:10:49;18.58;;;16.35;;
53309;SDS011;39197;53.200;5.792;2022-08-19T05:13:17;21.90;;;16.63;;
53309;SDS011;39197;53.200;5.792;2022-08-19T05:15:44;19.52;;;17.42;;
53309;SDS011;39197;53.200;5.792;2022-08-19T05:18:19;19.52;;;17.25;;
53309;SDS011;39197;53.200;5.792;2022-08-19T05:21:07;22.58;;;17.83;;
53309;SDS011;39197;53.200;5.792;2022-08-19T05:26:22;23.88;;;17.15;;
53309;SDS011;39197;53.200;5.792;2022-08-19T05:28:48;20.95;;;17.67;;
53309;SDS011;39197;53.200;5.792;2022-08-19T05:31:13;21.48;;;18.50;;
53309;SDS011;39197;53.200;5.792;2022-08-19T05:33:39;21.50;;;18.13;;
53309;SDS011;39197;53.200;5.792;2022-08-19T05:36:05;19.85;;;17.83;;
53309;SDS011;39197;53.200;5.792;2022-08-19T05:38:32;20.25;;;18.25;;
53309;SDS011;39197;53.200;5.792;2022-08-19T05:41:00;20.85;;;18.33;;
53309;SDS011;39197;53.200;5.792;2022-08-19T05:43:30;23.58;;;19.70;;
53309;SDS011;39197;53.200;5.792;2022-08-19T05:45:56;19.75;;;17.73;;
53309;SDS011;39197;53.200;5.792;2022-08-19T05:48:21;22.63;;;17.30;;
53309;SDS011;39197;53.200;5.792;2022-08-19T05:50:47;21.60;;;19.27;;
53309;SDS011;39197;53.200;5.792;2022-08-19T05:53:15;23.08;;;17.80;;
53309;SDS011;39197;53.200;5.792;2022-08-19T05:55:41;19.38;;;17.42;;
53309;SDS011;39197;53.200;5.792;2022-08-19T05:58:07;17.77;;;15.60;;
53309;SDS011;39197;53.200;5.792;2022-08-19T06:00:33;21.38;;;18.55;;
53309;SDS011;39197;53.200;5.792;2022-08-19T06:03:00;20.42;;;18.13;;
53309;SDS011;39197;53.200;5.792;2022-08-19T06:05:28;22.73;;;18.25;;
53309;SDS011;39197;53.200;5.792;2022-08-19T06:07:54;19.95;;;17.80;;
53309;SDS011;39197;53.200;5.792;2022-08-19T06:10:20;23.67;;;18.77;;
53309;SDS011;39197;53.200;5.792;2022-08-19T06:12:46;22.02;;;18.38;;
53309;SDS011;39197;53.200;5.792;2022-08-19T06:15:13;21.77;;;17.52;;
53309;SDS011;39197;53.200;5.792;2022-08-19T06:17:39;19.40;;;17.40;;
53309;SDS011;39197;53.200;5.792;2022-08-19T06:20:08;19.67;;;17.63;;
53309;SDS011;39197;53.200;5.792;2022-08-19T06:22:41;19.63;;;17.52;;
53309;SDS011;39197;53.200;5.792;2022-08-19T06:25:09;18.33;;;16.42;;
53309;SDS011;39197;53.200;5.792;2022-08-19T06:27:35;19.20;;;16.90;;
53309;SDS011;39197;53.200;5.792;2022-08-19T06:30:02;20.90;;;17.73;;
53309;SDS011;39197;53.200;5.792;2022-08-19T06:32:29;18.30;;;16.42;;
53309;SDS011;39197;53.200;5.792;2022-08-19T06:34:55;18.92;;;17.02;;
53309;SDS011;39197;53.200;5.792;2022-08-19T06:37:20;20.52;;;16.17;;
53309;SDS011;39197;53.200;5.792;2022-08-19T06:39:47;21.50;;;16.77;;
53309;SDS011;39197;53.200;5.792;2022-08-19T06:42:13;18.80;;;16.90;;
53309;SDS011;39197;53.200;5.792;2022-08-19T06:44:41;18.52;;;16.65;;
53309;SDS011;39197;53.200;5.792;2022-08-19T06:47:08;18.83;;;16.25;;
53309;SDS011;39197;53.200;5.792;2022-08-19T06:49:37;19.25;;;16.73;;
53309;SDS011;39197;53.200;5.792;2022-08-19T06:52:03;17.02;;;15.48;;
53309;SDS011;39197;53.200;5.792;2022-08-19T06:54:30;18.02;;;16.17;;
53309;SDS011;39197;53.200;5.792;2022-08-19T06:56:57;16.90;;;15.15;;
53309;SDS011;39197;53.200;5.792;2022-08-19T06:59:26;19.73;;;16.35;;
53309;SDS011;39197;53.200;5.792;2022-08-19T07:01:53;17.65;;;16.05;;
53309;SDS011;39197;53.200;5.792;2022-08-19T07:04:25;17.85;;;16.02;;
53309;SDS011;39197;53.200;5.792;2022-08-19T07:07:00;16.48;;;14.98;;
53309;SDS011;39197;53.200;5.792;2022-08-19T07:09:31;16.20;;;14.68;;
53309;SDS011;39197;53.200;5.792;2022-08-19T07:11:57;17.17;;;15.45;;
53309;SDS011;39197;53.200;5.792;2022-08-19T07:14:23;16.90;;;15.35;;
53309;SDS011;39197;53.200;5.792;2022-08-19T07:16:51;18.10;;;16.40;;
53309;SDS011;39197;53.200;5.792;2022-08-19T07:19:19;17.88;;;15.98;;
53309;SDS011;39197;53.200;5.792;2022-08-19T07:21:47;17.38;;;15.48;;
53309;SDS011;39197;53.200;5.792;2022-08-19T07:24:14;17.63;;;15.70;;
53309;SDS011;39197;53.200;5.792;2022-08-19T07:26:41;17.05;;;15.35;;
53309;SDS011;39197;53.200;5.792;2022-08-19T07:29:08;19.35;;;16.63;;
53309;SDS011;39197;53.200;5.792;2022-08-19T07:31:35;16.02;;;14.52;;
53309;SDS011;39197;53.200;5.792;2022-08-19T07:34:02;17.20;;;15.48;;
53309;SDS011;39197;53.200;5.792;2022-08-19T07:36:32;18.23;;;16.60;;
53309;SDS011;39197;53.200;5.792;2022-08-19T07:38:59;18.73;;;16.85;;
53309;SDS011;39197;53.200;5.792;2022-08-19T07:41:28;18.05;;;16.02;;
53309;SDS011;39197;53.200;5.792;2022-08-19T07:43:55;17.67;;;15.95;;
53309;SDS011;39197;53.200;5.792;2022-08-19T07:46:21;18.02;;;16.33;;
53309;SDS011;39197;53.200;5.792;2022-08-19T07:48:47;15.82;;;14.35;;
53309;SDS011;39197;53.200;5.792;2022-08-19T07:51:16;17.88;;;16.17;;
53309;SDS011;39197;53.200;5.792;2022-08-19T07:53:45;18.35;;;16.75;;
53309;SDS011;39197;53.200;5.792;2022-08-19T07:56:12;16.67;;;14.82;;
53309;SDS011;39197;53.200;5.792;2022-08-19T07:58:39;17.95;;;16.25;;
53309;SDS011;39197;53.200;5.792;2022-08-19T08:01:08;20.48;;;18.42;;
53309;SDS011;39197;53.200;5.792;2022-08-19T08:03:36;20.38;;;18.42;;
53309;SDS011;39197;53.200;5.792;2022-08-19T08:06:21;18.75;;;16.90;;
53309;SDS011;39197;53.200;5.792;2022-08-19T08:09:05;20.95;;;19.05;;
53309;SDS011;39197;53.200;5.792;2022-08-19T08:11:58;22.55;;;20.45;;
53309;SDS011;39197;53.200;5.792;2022-08-19T08:14:34;21.42;;;19.38;;
53309;SDS011;39197;53.200;5.792;2022-08-19T08:17:04;22.50;;;20.40;;
53309;SDS011;39197;53.200;5.792;2022-08-19T08:19:31;23.70;;;21.40;;
53309;SDS011;39197;53.200;5.792;2022-08-19T08:21:58;26.88;;;24.38;;
53309;SDS011;39197;53.200;5.792;2022-08-19T08:24:26;27.65;;;25.17;;
53309;SDS011;39197;53.200;5.792;2022-08-19T08:26:55;27.52;;;24.85;;
53309;SDS011;39197;53.200;5.792;2022-08-19T08:29:23;26.85;;;24.35;;
53309;SDS011;39197;53.200;5.792;2022-08-19T08:31:53;26.60;;;24.13;;
53309;SDS011;39197;53.200;5.792;2022-08-19T08:34:19;26.70;;;24.08;;
53309;SDS011;39197;53.200;5.792;2022-08-19T08:36:46;27.48;;;24.80;;
53309;SDS011;39197;53.200;5.792;2022-08-19T08:39:16;25.45;;;23.05;;
53309;SDS011;39197;53.200;5.792;2022-08-19T08:44:19;24.70;;;22.20;;
53309;SDS011;39197;53.200;5.792;2022-08-19T08:47:09;29.77;;;22.77;;
53309;SDS011;39197;53.200;5.792;2022-08-19T08:49:44;25.33;;;21.10;;
53309;SDS011;39197;53.200;5.792;2022-08-19T08:55:04;90.72;;;26.88;;
53309;SDS011;39197;53.200;5.792;2022-08-19T08:57:39;20.98;;;18.42;;
53309;SDS011;39197;53.200;5.792;2022-08-19T09:00:21;18.02;;;15.80;;
53309;SDS011;39197;53.200;5.792;2022-08-19T09:03:00;18.73;;;16.83;;
53309;SDS011;39197;53.200;5.792;2022-08-19T09:05:33;19.73;;;17.27;;
53309;SDS011;39197;53.200;5.792;2022-08-19T09:08:13;20.08;;;17.83;;
53309;SDS011;39197;53.200;5.792;2022-08-19T09:10:55;19.58;;;17.67;;
53309;SDS011;39197;53.200;5.792;2022-08-19T09:13:30;18.60;;;15.88;;
53309;SDS011;39197;53.200;5.792;2022-08-19T09:16:19;18.02;;;15.40;;
53309;SDS011;39197;53.200;5.792;2022-08-19T09:18:50;17.48;;;15.32;;
53309;SDS011;39197;53.200;5.792;2022-08-19T09:21:18;15.20;;;13.70;;
53309;SDS011;39197;53.200;5.792;2022-08-19T09:23:45;17.40;;;14.15;;
53309;SDS011;39197;53.200;5.792;2022-08-19T09:26:15;17.20;;;15.30;;
53309;SDS011;39197;53.200;5.792;2022-08-19T09:28:43;14.27;;;12.70;;
53309;SDS011;39197;53.200;5.792;2022-08-19T09:31:14;16.23;;;14.63;;
53309;SDS011;39197;53.200;5.792;2022-08-19T09:33:42;22.25;;;14.65;;
53309;SDS011;39197;53.200;5.792;2022-08-19T09:36:11;14.80;;;12.20;;
53309;SDS011;39197;53.200;5.792;2022-08-19T09:38:39;13.40;;;11.18;;
53309;SDS011;39197;53.200;5.792;2022-08-19T09:41:06;13.23;;;11.68;;
53309;SDS011;39197;53.200;5.792;2022-08-19T09:43:37;12.60;;;11.18;;
53309;SDS011;39197;53.200;5.792;2022-08-19T09:46:04;16.73;;;11.32;;
53309;SDS011;39197;53.200;5.792;2022-08-19T09:48:34;14.35;;;10.65;;
53309;SDS011;39197;53.200;5.792;2022-08-19T09:51:08;12.63;;;9.93;;
53309;SDS011;39197;53.200;5.792;2022-08-19T09:53:36;13.25;;;11.45;;
53309;SDS011;39197;53.200;5.792;2022-08-19T09:56:03;14.90;;;12.98;;
53309;SDS011;39197;53.200;5.792;2022-08-19T09:58:31;13.02;;;9.93;;
53309;SDS011;39197;53.200;5.792;2022-08-19T10:00:58;14.32;;;11.52;;
53309;SDS011;39197;53.200;5.792;2022-08-19T10:03:25;12.57;;;11.30;;
53309;SDS011;39197;53.200;5.792;2022-08-19T10:05:52;13.95;;;10.75;;
53309;SDS011;39197;53.200;5.792;2022-08-19T10:08:20;21.98;;;10.88;;
53309;SDS011;39197;53.200;5.792;2022-08-19T10:10:47;25.33;;;12.20;;
53309;SDS011;39197;53.200;5.792;2022-08-19T10:13:15;12.57;;;10.60;;
53309;SDS011;39197;53.200;5.792;2022-08-19T10:15:43;15.23;;;11.52;;
53309;SDS011;39197;53.200;5.792;2022-08-19T10:18:09;12.32;;;11.10;;
53309;SDS011;39197;53.200;5.792;2022-08-19T10:20:35;24.08;;;11.88;;
53309;SDS011;39197;53.200;5.792;2022-08-19T10:23:01;14.15;;;11.55;;
53309;SDS011;39197;53.200;5.792;2022-08-19T10:25:28;14.35;;;9.88;;
53309;SDS011;39197;53.200;5.792;2022-08-19T10:27:53;20.10;;;14.70;;
53309;SDS011;39197;53.200;5.792;2022-08-19T10:30:20;14.68;;;9.15;;
53309;SDS011;39197;53.200;5.792;2022-08-19T10:32:46;37.35;;;10.27;;
53309;SDS011;39197;53.200;5.792;2022-08-19T10:35:12;16.00;;;10.20;;
53309;SDS011;39197;53.200;5.792;2022-08-19T10:37:38;12.55;;;10.02;;
53309;SDS011;39197;53.200;5.792;2022-08-19T10:40:06;13.07;;;10.20;;
53309;SDS011;39197;53.200;5.792;2022-08-19T10:42:33;10.15;;;8.05;;
53309;SDS011;39197;53.200;5.792;2022-08-19T10:45:00;11.63;;;7.35;;
53309;SDS011;39197;53.200;5.792;2022-08-19T10:47:26;13.02;;;8.85;;
53309;SDS011;39197;53.200;5.792;2022-08-19T10:49:53;10.75;;;8.25;;
53309;SDS011;39197;53.200;5.792;2022-08-19T10:52:42;13.05;;;9.30;;
53309;SDS011;39197;53.200;5.792;2022-08-19T10:55:11;13.73;;;8.30;;
53309;SDS011;39197;53.200;5.792;2022-08-19T10:57:55;13.73;;;9.68;;
53309;SDS011;39197;53.200;5.792;2022-08-19T11:00:22;10.65;;;8.60;;
53309;SDS011;39197;53.200;5.792;2022-08-19T11:02:50;14.00;;;9.85;;
53309;SDS011;39197;53.200;5.792;2022-08-19T11:05:16;9.65;;;7.93;;
53309;SDS011;39197;53.200;5.792;2022-08-19T11:07:42;9.40;;;8.40;;
53309;SDS011;39197;53.200;5.792;2022-08-19T11:10:10;11.10;;;8.27;;
53309;SDS011;39197;53.200;5.792;2022-08-19T11:12:38;11.15;;;9.02;;
53309;SDS011;39197;53.200;5.792;2022-08-19T11:15:08;12.02;;;9.20;;
53309;SDS011;39197;53.200;5.792;2022-08-19T11:17:36;10.82;;;8.63;;
53309;SDS011;39197;53.200;5.792;2022-08-19T11:20:06;9.98;;;7.50;;
53309;SDS011;39197;53.200;5.792;2022-08-19T11:22:33;10.60;;;5.38;;
53309;SDS011;39197;53.200;5.792;2022-08-19T11:24:59;6.38;;;5.55;;
53309;SDS011;39197;53.200;5.792;2022-08-19T11:27:24;7.25;;;4.70;;
53309;SDS011;39197;53.200;5.792;2022-08-19T11:29:50;9.80;;;6.43;;
53309;SDS011;39197;53.200;5.792;2022-08-19T11:32:17;8.80;;;7.15;;
53309;SDS011;39197;53.200;5.792;2022-08-19T11:34:43;8.23;;;6.22;;
53309;SDS011;39197;53.200;5.792;2022-08-19T11:37:09;11.85;;;6.70;;
53309;SDS011;39197;53.200;5.792;2022-08-19T11:39:35;7.97;;;6.15;;
53309;SDS011;39197;53.200;5.792;2022-08-19T11:42:02;10.65;;;6.95;;
53309;SDS011;39197;53.200;5.792;2022-08-19T11:44:49;9.25;;;5.47;;
53309;SDS011;39197;53.200;5.792;2022-08-19T11:47:15;10.20;;;6.85;;
53309;SDS011;39197;53.200;5.792;2022-08-19T11:49:41;11.52;;;7.53;;
53309;SDS011;39197;53.200;5.792;2022-08-19T11:52:08;9.93;;;7.97;;
53309;SDS011;39197;53.200;5.792;2022-08-19T11:54:34;11.13;;;8.45;;
53309;SDS011;39197;53.200;5.792;2022-08-19T11:56:59;9.43;;;8.43;;
53309;SDS011;39197;53.200;5.792;2022-08-19T11:59:28;11.90;;;7.72;;
53309;SDS011;39197;53.200;5.792;2022-08-19T12:01:54;9.93;;;6.25;;
53309;SDS011;39197;53.200;5.792;2022-08-19T12:04:22;20.05;;;7.22;;
53309;SDS011;39197;53.200;5.792;2022-08-19T12:06:48;9.23;;;4.50;;
53309;SDS011;39197;53.200;5.792;2022-08-19T12:09:14;5.78;;;4.45;;
53309;SDS011;39197;53.200;5.792;2022-08-19T12:11:42;11.13;;;5.10;;
53309;SDS011;39197;53.200;5.792;2022-08-19T12:14:12;7.55;;;4.43;;
53309;SDS011;39197;53.200;5.792;2022-08-19T12:16:39;7.97;;;4.30;;
53309;SDS011;39197;53.200;5.792;2022-08-19T12:19:06;10.93;;;4.90;;
53309;SDS011;39197;53.200;5.792;2022-08-19T12:21:32;7.63;;;4.50;;
53309;SDS011;39197;53.200;5.792;2022-08-19T12:23:59;6.55;;;4.75;;
53309;SDS011;39197;53.200;5.792;2022-08-19T12:26:27;7.78;;;5.93;;
53309;SDS011;39197;53.200;5.792;2022-08-19T12:28:54;7.85;;;6.50;;
53309;SDS011;39197;53.200;5.792;2022-08-19T12:31:20;8.85;;;6.60;;
53309;SDS011;39197;53.200;5.792;2022-08-19T12:33:46;6.65;;;5.60;;
53309;SDS011;39197;53.200;5.792;2022-08-19T12:36:13;10.00;;;7.18;;
53309;SDS011;39197;53.200;5.792;2022-08-19T12:38:40;11.38;;;6.20;;
53309;SDS011;39197;53.200;5.792;2022-08-19T12:41:08;9.10;;;6.90;;
53309;SDS011;39197;53.200;5.792;2022-08-19T12:43:36;9.15;;;6.53;;
53309;SDS011;39197;53.200;5.792;2022-08-19T12:46:03;8.63;;;6.88;;
53309;SDS011;39197;53.200;5.792;2022-08-19T12:48:30;46.90;;;11.18;;
53309;SDS011;39197;53.200;5.792;2022-08-19T12:50:56;12.23;;;6.60;;
53309;SDS011;39197;53.200;5.792;2022-08-19T12:53:22;12.65;;;7.65;;
53309;SDS011;39197;53.200;5.792;2022-08-19T12:55:53;9.25;;;6.88;;
53309;SDS011;39197;53.200;5.792;2022-08-19T12:58:21;9.02;;;6.35;;
53309;SDS011;39197;53.200;5.792;2022-08-19T13:00:46;8.32;;;5.80;;
53309;SDS011;39197;53.200;5.792;2022-08-19T13:03:13;7.03;;;5.82;;
53309;SDS011;39197;53.200;5.792;2022-08-19T13:05:40;9.18;;;6.13;;
53309;SDS011;39197;53.200;5.792;2022-08-19T13:08:06;7.72;;;6.82;;
53309;SDS011;39197;53.200;5.792;2022-08-19T13:10:32;8.65;;;7.25;;
53309;SDS011;39197;53.200;5.792;2022-08-19T13:13:00;10.10;;;6.88;;
53309;SDS011;39197;53.200;5.792;2022-08-19T13:15:27;7.43;;;6.65;;
53309;SDS011;39197;53.200;5.792;2022-08-19T13:17:55;9.65;;;6.68;;
53309;SDS011;39197;53.200;5.792;2022-08-19T13:20:21;11.15;;;6.80;;
53309;SDS011;39197;53.200;5.792;2022-08-19T13:22:47;10.43;;;7.95;;
53309;SDS011;39197;53.200;5.792;2022-08-19T13:25:13;9.90;;;8.23;;
53309;SDS011;39197;53.200;5.792;2022-08-19T13:27:41;8.32;;;6.15;;
53309;SDS011;39197;53.200;5.792;2022-08-19T13:30:08;7.65;;;6.35;;
53309;SDS011;39197;53.200;5.792;2022-08-19T13:32:55;7.28;;;6.50;;
53309;SDS011;39197;53.200;5.792;2022-08-19T13:38:18;6.70;;;5.43;;
53309;SDS011;39197;53.200;5.792;2022-08-19T13:40:45;9.77;;;5.80;;
53309;SDS011;39197;53.200;5.792;2022-08-19T13:43:12;7.07;;;6.38;;
53309;SDS011;39197;53.200;5.792;2022-08-19T13:45:39;6.15;;;5.43;;
53309;SDS011;39197;53.200;5.792;2022-08-19T13:48:05;8.57;;;5.10;;
53309;SDS011;39197;53.200;5.792;2022-08-19T13:50:33;5.25;;;3.90;;
53309;SDS011;39197;53.200;5.792;2022-08-19T13:53:08;7.38;;;4.90;;
53309;SDS011;39197;53.200;5.792;2022-08-19T13:55:36;7.88;;;5.00;;
53309;SDS011;39197;53.200;5.792;2022-08-19T13:58:06;6.32;;;5.72;;
53309;SDS011;39197;53.200;5.792;2022-08-19T14:00:39;6.40;;;5.20;;
53309;SDS011;39197;53.200;5.792;2022-08-19T14:03:08;7.22;;;4.60;;
53309;SDS011;39197;53.200;5.792;2022-08-19T14:05:34;5.78;;;3.97;;
53309;SDS011;39197;53.200;5.792;2022-08-19T14:08:00;9.05;;;3.97;;
53309;SDS011;39197;53.200;5.792;2022-08-19T14:10:26;8.65;;;4.72;;
53309;SDS011;39197;53.200;5.792;2022-08-19T14:12:56;7.20;;;3.92;;
53309;SDS011;39197;53.200;5.792;2022-08-19T14:15:25;4.88;;;4.20;;
53309;SDS011;39197;53.200;5.792;2022-08-19T14:17:51;7.93;;;4.15;;
53309;SDS011;39197;53.200;5.792;2022-08-19T14:20:17;7.03;;;4.00;;
53309;SDS011;39197;53.200;5.792;2022-08-19T14:22:43;4.38;;;3.10;;
53309;SDS011;39197;53.200;5.792;2022-08-19T14:25:12;5.22;;;2.47;;
53309;SDS011;39197;53.200;5.792;2022-08-19T14:27:43;3.80;;;2.80;;
53309;SDS011;39197;53.200;5.792;2022-08-19T14:30:10;8.10;;;6.88;;
53309;SDS011;39197;53.200;5.792;2022-08-19T14:32:38;5.00;;;3.35;;
53309;SDS011;39197;53.200;5.792;2022-08-19T14:35:05;3.95;;;2.15;;
53309;SDS011;39197;53.200;5.792;2022-08-19T14:37:32;4.78;;;2.05;;
53309;SDS011;39197;53.200;5.792;2022-08-19T14:39:59;5.30;;;3.63;;
53309;SDS011;39197;53.200;5.792;2022-08-19T14:42:24;5.22;;;3.78;;
53309;SDS011;39197;53.200;5.792;2022-08-19T14:44:50;4.43;;;2.22;;
53309;SDS011;39197;53.200;5.792;2022-08-19T14:47:16;4.45;;;2.20;;
53309;SDS011;39197;53.200;5.792;2022-08-19T14:49:41;4.25;;;1.95;;
53309;SDS011;39197;53.200;5.792;2022-08-19T14:52:07;3.95;;;2.60;;
53309;SDS011;39197;53.200;5.792;2022-08-19T14:54:33;4.35;;;1.92;;